createdAt,value
2024-02-29T00:01:04.316Z,50.06
2024-02-29T00:03:40.947Z,50.81
2024-02-29T00:06:08.302Z,50.30
2024-02-29T00:08:45.308Z,49.72
2024-02-29T00:11:18.784Z,49.40
2024-02-29T00:13:53.680Z,49.99
2024-02-29T00:16:23.884Z,49.98
2024-02-29T00:18:51.496Z,50.13
2024-02-29T00:21:19.572Z,50.50
2024-02-29T00:23:46.746Z,50.76
2024-02-29T00:26:15.266Z,49.49
2024-02-29T00:28:43.051Z,50.50
2024-02-29T00:31:10.513Z,50.64
2024-02-29T00:33:45.630Z,50.81
2024-02-29T00:36:30.093Z,50.80
2024-02-29T00:39:05.873Z,50.73
2024-02-29T00:41:40.764Z,49.98
2024-02-29T00:44:07.836Z,49.53
2024-02-29T00:46:35.654Z,50.24
2024-02-29T00:49:02.612Z,50.84
2024-02-29T00:51:29.880Z,50.69
2024-02-29T00:53:57.312Z,49.91
2024-02-29T00:56:24.754Z,50.18
2024-02-29T00:58:51.887Z,50.97
2024-02-29T01:01:18.881Z,50.42
2024-02-29T01:03:45.918Z,50.55
2024-02-29T01:06:12.952Z,51.37
2024-02-29T01:08:40.548Z,53.24
2024-02-29T01:11:10.543Z,54.53
2024-02-29T01:13:37.941Z,54.82
2024-02-29T01:16:04.957Z,54.73
2024-02-29T01:18:31.895Z,55.43
2024-02-29T01:20:59.208Z,55.52
2024-02-29T01:23:26.693Z,55.28
2024-02-29T01:25:53.840Z,55.30
2024-02-29T01:28:22.235Z,55.55
2024-02-29T01:30:50.319Z,56.45
2024-02-29T01:33:17.545Z,57.29
2024-02-29T01:35:45.144Z,57.31
2024-02-29T01:38:13.947Z,57.79
2024-02-29T01:40:40.813Z,58.07
2024-02-29T01:43:07.850Z,57.46
2024-02-29T01:45:34.874Z,58.15
2024-02-29T01:48:02.523Z,57.23
2024-02-29T01:50:29.412Z,56.88
2024-02-29T01:52:57.287Z,57.22
2024-02-29T01:55:24.568Z,57.38
2024-02-29T01:57:56.005Z,57.12
2024-02-29T02:00:23.142Z,56.40
2024-02-29T02:02:50.078Z,55.00
2024-02-29T02:05:17.842Z,53.50
2024-02-29T02:07:47.310Z,54.63
2024-02-29T02:10:14.437Z,55.86
2024-02-29T02:12:41.716Z,56.19
2024-02-29T02:15:10.034Z,55.57
2024-02-29T02:17:37.319Z,56.12
2024-02-29T02:20:04.329Z,56.63
2024-02-29T02:22:31.650Z,56.03
2024-02-29T02:24:58.594Z,55.21
2024-02-29T02:27:25.569Z,56.05
2024-02-29T02:29:52.843Z,54.06
2024-02-29T02:32:20.126Z,53.87
2024-02-29T02:34:47.233Z,53.30
2024-02-29T02:37:14.315Z,53.72
2024-02-29T02:39:41.744Z,55.17
2024-02-29T02:42:09.074Z,55.67
2024-02-29T02:44:36.870Z,55.29
2024-02-29T02:47:05.306Z,54.93
2024-02-29T02:49:33.026Z,54.29
2024-02-29T02:52:00.996Z,54.88
2024-02-29T02:54:30.886Z,54.54
2024-02-29T02:56:58.210Z,54.56
2024-02-29T02:59:25.506Z,54.37
2024-02-29T03:01:52.818Z,54.54
2024-02-29T03:04:20.062Z,54.58
2024-02-29T03:06:49.173Z,54.33
2024-02-29T03:09:16.745Z,53.30
2024-02-29T03:11:44.137Z,54.53
2024-02-29T03:14:11.688Z,55.28
2024-02-29T03:16:38.852Z,55.11
2024-02-29T03:19:06.376Z,55.61
2024-02-29T03:21:34.044Z,56.31
2024-02-29T03:24:02.667Z,55.56
2024-02-29T03:26:30.362Z,55.73
2024-02-29T03:29:00.325Z,56.10
2024-02-29T03:31:28.298Z,56.80
2024-02-29T03:33:55.611Z,56.00
2024-02-29T03:36:23.010Z,56.93
2024-02-29T03:38:50.527Z,56.53
2024-02-29T03:41:17.693Z,56.03
2024-02-29T03:43:46.395Z,56.65
2024-02-29T03:46:19.786Z,56.48
2024-02-29T03:48:47.078Z,57.51
2024-02-29T03:51:14.229Z,56.83
2024-02-29T03:53:41.714Z,56.83
2024-02-29T03:56:09.017Z,56.45
2024-02-29T03:58:39.280Z,56.25
2024-02-29T04:01:06.534Z,56.17
2024-02-29T04:03:34.397Z,57.13
2024-02-29T04:06:01.755Z,57.62
2024-02-29T04:08:29.275Z,57.59
2024-02-29T04:10:56.929Z,57.97
2024-02-29T04:13:25.809Z,57.30
2024-02-29T04:15:55.844Z,57.96
2024-02-29T04:18:26.848Z,57.04
2024-02-29T04:20:54.738Z,56.14
2024-02-29T04:23:24.809Z,56.32
2024-02-29T04:25:51.679Z,56.67
2024-02-29T04:28:23.092Z,56.96
2024-02-29T04:30:50.374Z,56.75
2024-02-29T04:33:17.424Z,58.12
2024-02-29T04:35:44.673Z,58.47
2024-02-29T04:38:11.947Z,58.57
2024-02-29T04:40:39.024Z,57.55
2024-02-29T04:43:06.282Z,57.34
2024-02-29T04:45:33.366Z,56.57
2024-02-29T04:48:00.439Z,56.59
2024-02-29T04:50:27.692Z,56.95
2024-02-29T04:52:54.593Z,57.50
2024-02-29T04:55:21.562Z,57.18
2024-02-29T04:57:50.646Z,56.65
2024-02-29T05:00:18.056Z,57.35
2024-02-29T05:02:45.078Z,57.51
2024-02-29T05:05:12.359Z,57.04
2024-02-29T05:07:42.490Z,57.55
2024-02-29T05:10:09.741Z,57.70
2024-02-29T05:12:36.805Z,56.26
2024-02-29T05:15:03.829Z,56.27
2024-02-29T05:17:30.957Z,56.62
2024-02-29T05:19:57.970Z,57.12
2024-02-29T05:22:24.908Z,57.05
2024-02-29T05:24:52.283Z,57.42
2024-02-29T05:27:20.891Z,59.37
2024-02-29T05:29:51.653Z,56.96
2024-02-29T05:32:20.200Z,56.95
2024-02-29T05:34:47.096Z,56.73
2024-02-29T05:37:16.576Z,55.83
2024-02-29T05:39:43.526Z,57.56
2024-02-29T05:42:10.933Z,57.27
2024-02-29T05:44:38.108Z,58.46
2024-02-29T05:47:05.083Z,58.64
2024-02-29T05:49:32.249Z,59.56
2024-02-29T05:51:59.249Z,59.18
2024-02-29T05:54:26.496Z,57.72
2024-02-29T05:56:53.855Z,58.26
2024-02-29T05:59:25.777Z,57.86
2024-02-29T06:01:53.504Z,57.84
2024-02-29T06:04:20.607Z,57.36
2024-02-29T06:06:47.816Z,57.56
2024-02-29T06:09:14.706Z,59.61
2024-02-29T06:11:42.001Z,60.57
2024-02-29T06:14:09.048Z,58.20
2024-02-29T06:16:36.379Z,57.75
2024-02-29T06:19:03.510Z,58.28
2024-02-29T06:21:30.804Z,57.93
2024-02-29T06:23:57.870Z,57.42
2024-02-29T06:26:24.904Z,56.80
2024-02-29T06:28:52.993Z,56.61
2024-02-29T06:31:20.196Z,56.30
2024-02-29T06:33:48.588Z,58.12
2024-02-29T06:36:15.743Z,56.46
2024-02-29T06:38:43.064Z,55.85
2024-02-29T06:41:10.908Z,57.05
2024-02-29T06:43:38.712Z,56.18
2024-02-29T06:46:06.015Z,55.99
2024-02-29T06:48:33.476Z,55.07
2024-02-29T06:51:02.028Z,55.20
2024-02-29T06:53:29.838Z,55.46
2024-02-29T06:55:57.436Z,54.84
2024-02-29T06:58:24.805Z,55.66
2024-02-29T07:00:52.399Z,54.62
2024-02-29T07:03:20.423Z,54.28
2024-02-29T07:05:48.315Z,55.36
2024-02-29T07:08:15.982Z,54.74
2024-02-29T07:10:43.338Z,54.47
2024-02-29T07:13:11.366Z,53.48
2024-02-29T07:15:41.594Z,55.23
2024-02-29T07:18:09.115Z,56.47
2024-02-29T07:20:36.714Z,56.19
2024-02-29T07:23:05.260Z,54.10
2024-02-29T07:25:32.905Z,53.07
2024-02-29T07:28:00.177Z,53.50
2024-02-29T07:30:27.702Z,53.47
2024-02-29T07:32:55.139Z,53.67
2024-02-29T07:35:23.750Z,53.81
2024-02-29T07:37:53.828Z,54.23
2024-02-29T07:40:22.481Z,52.96
2024-02-29T07:42:50.401Z,53.45
2024-02-29T07:45:20.462Z,52.63
2024-02-29T07:47:48.961Z,53.67
2024-02-29T07:50:16.335Z,52.96
2024-02-29T07:52:43.846Z,52.27
2024-02-29T07:55:12.025Z,51.86
2024-02-29T07:57:39.497Z,51.58
2024-02-29T08:00:06.980Z,51.57
2024-02-29T08:02:34.772Z,50.73
2024-02-29T08:05:01.861Z,51.43
2024-02-29T08:07:29.448Z,51.07
2024-02-29T08:09:57.414Z,51.11
2024-02-29T08:12:31.809Z,50.56
2024-02-29T08:15:07.285Z,50.06
2024-02-29T08:17:34.263Z,50.68
2024-02-29T08:20:01.331Z,50.44
2024-02-29T08:22:28.655Z,49.82
2024-02-29T08:24:55.871Z,49.66
2024-02-29T08:27:23.187Z,50.72
2024-02-29T08:29:50.291Z,50.26
2024-02-29T08:32:17.368Z,50.06
2024-02-29T08:34:44.723Z,50.99
2024-02-29T08:37:12.035Z,50.70
2024-02-29T08:39:39.306Z,51.43
2024-02-29T08:42:06.822Z,51.73
2024-02-29T08:44:33.883Z,51.89
2024-02-29T08:47:01.520Z,50.02
2024-02-29T08:49:29.095Z,49.70
2024-02-29T08:51:56.394Z,50.70
2024-02-29T08:54:23.283Z,50.80
2024-02-29T08:56:50.370Z,49.72
2024-02-29T08:59:18.816Z,48.93
2024-02-29T09:01:46.295Z,50.84
2024-02-29T09:04:13.629Z,49.78
2024-02-29T09:06:42.062Z,50.03
2024-02-29T09:09:09.914Z,51.66
2024-02-29T09:11:37.216Z,50.45
2024-02-29T09:14:04.769Z,50.66
2024-02-29T09:16:32.897Z,51.05
2024-02-29T09:19:03.848Z,50.46
2024-02-29T09:21:31.982Z,50.83
2024-02-29T09:23:59.712Z,50.48
2024-02-29T09:26:28.500Z,49.85
2024-02-29T09:28:55.829Z,49.53
2024-02-29T09:31:23.359Z,49.29
2024-02-29T09:33:50.816Z,49.45
2024-02-29T09:36:18.589Z,47.71
2024-02-29T09:38:46.028Z,47.23
2024-02-29T09:43:45.524Z,47.61
2024-02-29T09:46:14.207Z,48.19
2024-02-29T09:48:41.530Z,48.17
2024-02-29T09:51:09.209Z,48.72
2024-02-29T09:53:36.564Z,46.80
2024-02-29T09:56:03.829Z,48.81
2024-02-29T09:58:30.962Z,48.15
2024-02-29T10:00:58.717Z,47.23
2024-02-29T10:03:26.176Z,47.79
2024-02-29T10:05:55.116Z,46.78
2024-02-29T10:08:22.474Z,48.08
2024-02-29T10:10:51.556Z,48.47
2024-02-29T10:13:20.212Z,50.37
2024-02-29T10:15:48.180Z,48.82
2024-02-29T10:18:16.226Z,48.29
2024-02-29T10:20:44.475Z,47.06
2024-02-29T10:23:11.777Z,46.57
2024-02-29T10:25:39.364Z,46.79
2024-02-29T10:28:06.957Z,47.13
2024-02-29T10:30:38.688Z,47.81
2024-02-29T10:33:05.941Z,48.24
2024-02-29T10:35:33.132Z,47.94
2024-02-29T10:38:01.120Z,47.91
2024-02-29T10:40:28.706Z,46.67
2024-02-29T10:42:56.749Z,47.53
2024-02-29T10:45:26.849Z,46.45
2024-02-29T10:47:54.653Z,47.86
2024-02-29T10:50:22.319Z,47.39
2024-02-29T10:52:49.925Z,47.09
2024-02-29T10:55:17.074Z,46.86
2024-02-29T10:57:44.693Z,46.77
2024-02-29T11:00:11.973Z,47.44
2024-02-29T11:02:39.780Z,48.15
2024-02-29T11:05:07.004Z,48.23
2024-02-29T11:07:35.386Z,46.48
2024-02-29T11:10:02.998Z,48.11
2024-02-29T11:12:30.410Z,48.19
2024-02-29T11:14:58.081Z,47.25
2024-02-29T11:17:25.385Z,45.19
2024-02-29T11:19:57.380Z,44.89
2024-02-29T11:22:25.094Z,45.65
2024-02-29T11:24:52.404Z,45.31
2024-02-29T11:27:19.706Z,45.24
2024-02-29T11:29:47.348Z,45.44
2024-02-29T11:32:15.088Z,45.35
2024-02-29T11:34:42.337Z,46.67
2024-02-29T11:37:09.737Z,45.12
2024-02-29T11:39:37.039Z,46.89
2024-02-29T11:42:04.757Z,46.63
2024-02-29T11:44:31.960Z,45.86
2024-02-29T11:46:59.441Z,47.81
2024-02-29T11:49:26.920Z,44.91
2024-02-29T11:51:54.410Z,45.28
2024-02-29T11:54:24.202Z,45.67
2024-02-29T11:56:53.134Z,45.05
2024-02-29T11:59:20.512Z,45.61
2024-02-29T12:01:50.545Z,45.15
2024-02-29T12:04:17.981Z,44.30
2024-02-29T12:06:45.534Z,45.88
2024-02-29T12:09:12.636Z,47.38
2024-02-29T12:11:40.200Z,44.84
2024-02-29T12:14:07.441Z,44.67
2024-02-29T12:16:34.684Z,44.97
2024-02-29T12:19:02.086Z,46.24
2024-02-29T12:21:29.348Z,46.93
2024-02-29T12:23:56.573Z,45.52
2024-02-29T12:26:23.562Z,45.61
2024-02-29T12:28:50.561Z,43.78
2024-02-29T12:31:17.595Z,43.83
2024-02-29T12:33:44.902Z,45.23
2024-02-29T12:36:12.332Z,44.87
2024-02-29T12:38:39.337Z,45.17
2024-02-29T12:41:06.802Z,47.22
2024-02-29T12:43:33.749Z,47.31
2024-02-29T12:46:00.830Z,48.23
2024-02-29T12:48:28.088Z,47.14
2024-02-29T12:50:56.132Z,46.19
2024-02-29T12:53:23.505Z,43.58
2024-02-29T12:55:50.738Z,43.79
2024-02-29T12:58:17.973Z,43.61
2024-02-29T13:00:46.052Z,43.36
2024-02-29T13:03:13.431Z,44.49
2024-02-29T13:05:41.282Z,42.92
2024-02-29T13:08:09.274Z,44.04
2024-02-29T13:10:37.058Z,43.14
2024-02-29T13:13:10.116Z,42.97
2024-02-29T13:15:38.407Z,42.17
2024-02-29T13:18:05.822Z,41.54
2024-02-29T13:20:33.115Z,42.91
2024-02-29T13:23:00.545Z,42.78
2024-02-29T13:25:28.631Z,42.43
2024-02-29T13:27:57.311Z,44.32
2024-02-29T13:30:27.779Z,43.76
2024-02-29T13:32:55.308Z,42.96
2024-02-29T13:35:22.947Z,44.26
2024-02-29T13:37:50.133Z,44.91
2024-02-29T13:40:17.728Z,44.06
2024-02-29T13:42:45.851Z,43.30
2024-02-29T13:45:13.388Z,43.57
2024-02-29T13:47:40.825Z,42.96
2024-02-29T13:50:08.324Z,43.81
2024-02-29T13:52:35.786Z,42.84
2024-02-29T13:55:03.085Z,42.60
2024-02-29T13:57:30.836Z,43.20
2024-02-29T13:59:58.474Z,43.29
2024-02-29T14:02:26.492Z,43.48
2024-02-29T14:04:54.039Z,44.23
2024-02-29T14:07:21.764Z,44.53
2024-02-29T14:09:49.071Z,43.73
2024-02-29T14:12:17.272Z,43.70
2024-02-29T14:14:44.500Z,43.77
2024-02-29T14:17:12.216Z,43.20
2024-02-29T14:19:39.329Z,43.02
2024-02-29T14:22:06.735Z,43.92
2024-02-29T14:24:34.240Z,44.75
2024-02-29T14:27:01.775Z,43.73
2024-02-29T14:29:31.259Z,43.89
2024-02-29T14:31:58.952Z,43.86
2024-02-29T14:34:26.131Z,43.32
2024-02-29T14:36:53.251Z,44.78
2024-02-29T14:39:20.391Z,44.25
2024-02-29T14:41:48.250Z,44.47
2024-02-29T14:44:15.901Z,44.03
2024-02-29T14:46:42.935Z,43.79
2024-02-29T14:49:11.912Z,44.69
2024-02-29T14:51:39.403Z,45.00
2024-02-29T14:54:06.638Z,44.45
2024-02-29T14:56:33.786Z,44.15
2024-02-29T14:59:00.691Z,44.24
2024-02-29T15:01:27.726Z,44.18
2024-02-29T15:03:55.597Z,44.04
2024-02-29T15:06:23.212Z,44.24
2024-02-29T15:08:51.018Z,43.72
2024-02-29T15:11:18.134Z,44.72
2024-02-29T15:13:45.470Z,44.79
2024-02-29T15:16:12.596Z,45.16
2024-02-29T15:18:39.797Z,44.97
2024-02-29T15:21:07.438Z,45.47
2024-02-29T15:23:34.940Z,44.88
2024-02-29T15:26:03.268Z,46.39
2024-02-29T15:28:30.861Z,47.10
2024-02-29T15:30:58.431Z,45.04
2024-02-29T15:33:26.029Z,45.24
2024-02-29T15:35:53.607Z,45.00
2024-02-29T15:38:21.161Z,45.08
2024-02-29T15:40:48.546Z,46.76
2024-02-29T15:43:16.221Z,46.70
2024-02-29T15:45:43.699Z,46.16
2024-02-29T15:48:12.294Z,45.49
2024-02-29T15:50:40.409Z,45.70
2024-02-29T15:53:07.648Z,47.57
2024-02-29T15:55:35.810Z,46.82
2024-02-29T15:58:03.620Z,45.90
2024-02-29T16:00:31.121Z,46.10
2024-02-29T16:02:58.744Z,46.72
2024-02-29T16:05:26.322Z,48.15
2024-02-29T16:07:55.781Z,46.90
2024-02-29T16:10:23.547Z,47.47
2024-02-29T16:12:51.177Z,47.32
2024-02-29T16:15:19.751Z,47.31
2024-02-29T16:17:47.023Z,46.87
2024-02-29T16:20:14.848Z,46.45
2024-02-29T16:22:42.506Z,46.72
2024-02-29T16:25:10.091Z,47.53
2024-02-29T16:27:38.168Z,48.53
2024-02-29T16:30:05.988Z,48.38
2024-02-29T16:32:33.496Z,47.04
2024-02-29T16:35:00.619Z,48.45
2024-02-29T16:37:27.867Z,48.91
2024-02-29T16:39:55.155Z,49.48
2024-02-29T16:42:22.918Z,50.13
2024-02-29T16:44:51.392Z,50.73
2024-02-29T16:47:19.068Z,50.87
2024-02-29T16:49:46.479Z,50.29
2024-02-29T16:52:14.089Z,50.65
2024-02-29T16:54:41.189Z,50.42
2024-02-29T16:57:08.255Z,49.74
2024-02-29T16:59:35.286Z,49.93
2024-02-29T17:02:02.352Z,49.31
2024-02-29T17:04:29.786Z,49.81
2024-02-29T17:06:56.809Z,48.95
2024-02-29T17:09:24.251Z,50.23
2024-02-29T17:11:51.641Z,51.28
2024-02-29T17:14:18.609Z,51.69
2024-02-29T17:16:45.702Z,51.40
2024-02-29T17:19:12.670Z,52.76
2024-02-29T17:21:41.721Z,53.33
2024-02-29T17:24:09.633Z,56.04
2024-02-29T17:26:36.635Z,58.29
2024-02-29T17:29:03.741Z,59.57
2024-02-29T17:31:30.943Z,59.82
2024-02-29T17:33:58.002Z,59.34
2024-02-29T17:36:24.882Z,59.01
2024-02-29T17:38:51.807Z,58.74
2024-02-29T17:41:18.799Z,58.91
2024-02-29T17:43:46.142Z,58.13
2024-02-29T17:46:13.243Z,59.21
2024-02-29T17:48:41.155Z,58.38
2024-02-29T17:51:08.570Z,57.82
2024-02-29T17:53:35.667Z,57.58
2024-02-29T17:56:03.048Z,58.07
2024-02-29T17:58:30.028Z,57.44
2024-02-29T18:00:57.153Z,57.40
2024-02-29T18:03:24.123Z,56.44
2024-02-29T18:05:51.476Z,55.96
2024-02-29T18:08:18.802Z,55.57
2024-02-29T18:10:45.914Z,56.17
2024-02-29T18:13:13.001Z,56.75
2024-02-29T18:15:40.336Z,55.87
2024-02-29T18:18:07.701Z,56.07
2024-02-29T18:20:35.057Z,55.81
2024-02-29T18:23:02.225Z,56.17
2024-02-29T18:25:29.499Z,56.00
2024-02-29T18:27:56.515Z,55.52
2024-02-29T18:30:23.528Z,54.63
2024-02-29T18:32:50.635Z,58.74
2024-02-29T18:35:23.589Z,55.82
2024-02-29T18:37:53.583Z,55.40
2024-02-29T18:40:21.031Z,54.74
2024-02-29T18:42:48.602Z,56.66
2024-02-29T18:45:15.738Z,56.79
2024-02-29T18:47:42.667Z,55.01
2024-02-29T18:50:12.211Z,54.75
2024-02-29T18:52:41.272Z,54.92
2024-02-29T18:55:08.604Z,55.05
2024-02-29T18:57:36.439Z,53.96
2024-02-29T19:00:03.649Z,53.49
2024-02-29T19:02:31.078Z,53.76
2024-02-29T19:04:58.838Z,54.37
2024-02-29T19:07:27.950Z,54.73
2024-02-29T19:09:57.589Z,54.95
2024-02-29T19:12:34.260Z,54.59
2024-02-29T19:15:02.536Z,54.08
2024-02-29T19:17:30.461Z,55.13
2024-02-29T19:20:01.330Z,54.48
2024-02-29T19:22:28.850Z,54.13
2024-02-29T19:24:56.612Z,54.15
2024-02-29T19:27:24.311Z,55.22
2024-02-29T19:29:52.592Z,54.27
2024-02-29T19:32:20.046Z,54.33
2024-02-29T19:34:47.511Z,54.03
2024-02-29T19:37:15.124Z,53.58
2024-02-29T19:39:42.716Z,54.05
2024-02-29T19:42:10.713Z,54.04
2024-02-29T19:44:39.610Z,53.63
2024-02-29T19:47:07.307Z,53.78
2024-02-29T19:49:34.605Z,53.27
2024-02-29T19:52:02.613Z,54.19
2024-02-29T19:54:30.326Z,53.43
2024-02-29T19:56:57.626Z,52.97
2024-02-29T19:59:25.181Z,54.57
2024-02-29T20:01:55.337Z,54.10
2024-02-29T20:04:26.220Z,55.71
2024-02-29T20:06:55.620Z,55.54
2024-02-29T20:09:24.244Z,55.49
2024-02-29T20:11:51.290Z,54.17
2024-02-29T20:14:18.397Z,53.96
2024-02-29T20:16:45.443Z,54.76
2024-02-29T20:19:13.888Z,54.90
2024-02-29T20:21:41.841Z,54.38
2024-02-29T20:24:09.192Z,53.24
2024-02-29T20:26:36.222Z,54.04
2024-02-29T20:29:03.603Z,53.66
2024-02-29T20:31:32.343Z,53.08
2024-02-29T20:33:59.802Z,52.45
2024-02-29T20:36:26.908Z,53.60
2024-02-29T20:38:55.268Z,54.28
2024-02-29T20:41:22.634Z,55.47
2024-02-29T20:43:49.553Z,55.32
2024-02-29T20:46:16.708Z,54.29
2024-02-29T20:48:44.090Z,53.88
2024-02-29T20:51:11.283Z,53.06
2024-02-29T20:53:38.327Z,53.77
2024-02-29T20:56:05.428Z,54.25
2024-02-29T20:58:32.781Z,54.89
2024-02-29T21:01:06.498Z,55.97
2024-02-29T21:03:33.537Z,56.21
2024-02-29T21:06:00.676Z,56.25
2024-02-29T21:08:28.198Z,55.65
2024-02-29T21:10:55.477Z,55.79
2024-02-29T21:13:32.767Z,54.09
2024-02-29T21:16:00.722Z,53.48
2024-02-29T21:18:29.216Z,53.13
2024-02-29T21:20:57.596Z,53.18
2024-02-29T21:23:24.794Z,52.09
2024-02-29T21:25:52.069Z,53.14
2024-02-29T21:28:21.749Z,52.60
2024-02-29T21:30:52.201Z,52.76
2024-02-29T21:33:22.807Z,52.98
2024-02-29T21:35:51.570Z,53.77
2024-02-29T21:38:22.449Z,53.71
2024-02-29T21:40:51.207Z,53.96
2024-02-29T21:43:18.108Z,54.10
2024-02-29T21:45:48.680Z,53.40
2024-02-29T21:48:15.811Z,53.48
2024-02-29T21:50:47.036Z,54.27
2024-02-29T21:53:15.827Z,54.18
2024-02-29T21:55:42.748Z,53.28
2024-02-29T21:58:15.176Z,53.84
2024-02-29T22:00:46.435Z,53.20
2024-02-29T22:03:13.561Z,54.05
2024-02-29T22:05:43.283Z,53.96
2024-02-29T22:08:17.273Z,54.66
2024-02-29T22:11:43.361Z,54.59
2024-02-29T22:13:56.961Z,54.42
2024-02-29T22:16:28.301Z,56.49
2024-02-29T22:22:01.067Z,55.46
2024-02-29T22:24:28.043Z,55.91
2024-02-29T22:26:57.806Z,55.92
2024-02-29T22:29:27.009Z,56.22
2024-02-29T22:31:54.277Z,55.84
2024-02-29T22:34:24.054Z,57.18
2024-02-29T22:36:51.453Z,56.62
2024-02-29T22:39:23.571Z,56.21
2024-02-29T22:41:57.545Z,56.30
2024-02-29T22:44:31.693Z,56.00
2024-02-29T22:46:58.957Z,56.58
2024-02-29T22:49:29.898Z,56.48
2024-02-29T22:51:57.664Z,56.52
2024-02-29T22:54:28.579Z,56.75
2024-02-29T22:57:01.572Z,56.63
2024-02-29T22:59:33.628Z,56.99
2024-02-29T23:02:03.924Z,56.58
2024-02-29T23:04:31.151Z,55.86
2024-02-29T23:07:01.272Z,56.50
2024-02-29T23:09:31.357Z,57.18
2024-02-29T23:11:58.594Z,56.56
2024-02-29T23:14:25.765Z,58.22
2024-02-29T23:16:57.994Z,57.31
2024-02-29T23:19:24.978Z,55.87
2024-02-29T23:21:52.076Z,55.04
2024-02-29T23:24:21.636Z,53.53
2024-02-29T23:26:48.766Z,55.61
2024-02-29T23:29:15.761Z,56.41
2024-02-29T23:31:45.446Z,55.83
2024-02-29T23:34:14.626Z,56.65
2024-02-29T23:36:41.868Z,56.51
2024-02-29T23:39:11.228Z,57.57
2024-02-29T23:41:38.141Z,58.39
2024-02-29T23:44:13.145Z,58.31
2024-02-29T23:46:53.422Z,56.98
2024-02-29T23:49:20.290Z,56.91
2024-02-29T23:51:50.522Z,57.14
2024-02-29T23:54:17.901Z,55.33
2024-02-29T23:56:45.150Z,53.95
2024-02-29T23:59:15.229Z,56.99
